sensor_id;sensor_type;location;lat;lon;timestamp;pressure;altitude;pressure_sealevel;temperature;humidity
78841;BME280;68379;47.190;27.558;2023-08-07T00:00:27;98337.20;;;18.86;79.47
78841;BME280;68379;47.190;27.558;2023-08-07T00:03:16;98333.48;;;18.84;79.62
78841;BME280;68379;47.190;27.558;2023-08-07T00:05:47;98332.30;;;18.84;79.51
78841;BME280;68379;47.190;27.558;2023-08-07T00:08:15;98330.91;;;18.83;79.27
78841;BME280;68379;47.190;27.558;2023-08-07T00:10:44;98332.21;;;18.83;79.56
78841;BME280;68379;47.190;27.558;2023-08-07T00:13:13;98335.85;;;18.84;79.69
78841;BME280;68379;47.190;27.558;2023-08-07T00:15:42;98333.19;;;18.84;79.94
78841;BME280;68379;47.190;27.558;2023-08-07T00:18:11;98331.11;;;18.83;80.00
78841;BME280;68379;47.190;27.558;2023-08-07T00:20:40;98330.09;;;18.82;79.95
78841;BME280;68379;47.190;27.558;2023-08-07T00:23:09;98339.44;;;18.80;79.72
78841;BME280;68379;47.190;27.558;2023-08-07T00:25:38;98347.85;;;18.76;79.68
78841;BME280;68379;47.190;27.558;2023-08-07T00:28:07;98350.63;;;18.72;80.16
78841;BME280;68379;47.190;27.558;2023-08-07T00:30:36;98347.10;;;18.69;80.30
78841;BME280;68379;47.190;27.558;2023-08-07T00:33:04;98346.16;;;18.67;80.13
78841;BME280;68379;47.190;27.558;2023-08-07T00:35:33;98348.73;;;18.67;80.26
78841;BME280;68379;47.190;27.558;2023-08-07T00:38:02;98350.82;;;18.67;80.38
78841;BME280;68379;47.190;27.558;2023-08-07T00:40:38;98352.15;;;18.66;80.60
78841;BME280;68379;47.190;27.558;2023-08-07T00:43:07;98356.59;;;18.65;81.11
78841;BME280;68379;47.190;27.558;2023-08-07T00:45:41;98348.45;;;18.64;81.17
78841;BME280;68379;47.190;27.558;2023-08-07T00:48:11;98344.45;;;18.65;80.86
78841;BME280;68379;47.190;27.558;2023-08-07T00:50:40;98340.58;;;18.66;81.02
78841;BME280;68379;47.190;27.558;2023-08-07T00:53:10;98337.30;;;18.67;81.10
78841;BME280;68379;47.190;27.558;2023-08-07T00:55:39;98338.48;;;18.67;81.16
78841;BME280;68379;47.190;27.558;2023-08-07T00:58:09;98340.83;;;18.65;81.40
78841;BME280;68379;47.190;27.558;2023-08-07T01:00:38;98340.52;;;18.61;81.59
78841;BME280;68379;47.190;27.558;2023-08-07T01:03:12;98337.70;;;18.59;81.71
78841;BME280;68379;47.190;27.558;2023-08-07T01:05:42;98340.67;;;18.56;81.96
78841;BME280;68379;47.190;27.558;2023-08-07T01:08:11;98338.08;;;18.53;82.00
78841;BME280;68379;47.190;27.558;2023-08-07T01:10:50;98341.14;;;18.53;81.87
78841;BME280;68379;47.190;27.558;2023-08-07T01:13:23;98348.61;;;18.52;82.07
78841;BME280;68379;47.190;27.558;2023-08-07T01:15:59;98348.95;;;18.48;82.14
78841;BME280;68379;47.190;27.558;2023-08-07T01:18:30;98348.52;;;18.43;82.27
78841;BME280;68379;47.190;27.558;2023-08-07T01:20:59;98343.79;;;18.38;82.85
78841;BME280;68379;47.190;27.558;2023-08-07T01:23:29;98345.39;;;18.35;83.06
78841;BME280;68379;47.190;27.558;2023-08-07T01:25:58;98341.47;;;18.33;83.26
78841;BME280;68379;47.190;27.558;2023-08-07T01:28:31;98336.58;;;18.30;82.87
78841;BME280;68379;47.190;27.558;2023-08-07T01:31:05;98338.75;;;18.27;82.84
78841;BME280;68379;47.190;27.558;2023-08-07T01:33:46;98343.93;;;18.25;83.25
78841;BME280;68379;47.190;27.558;2023-08-07T01:36:17;98349.77;;;18.24;83.33
78841;BME280;68379;47.190;27.558;2023-08-07T01:38:47;98349.35;;;18.23;83.44
78841;BME280;68379;47.190;27.558;2023-08-07T01:41:17;98347.05;;;18.22;83.18
78841;BME280;68379;47.190;27.558;2023-08-07T01:43:46;98347.79;;;18.22;83.19
78841;BME280;68379;47.190;27.558;2023-08-07T01:46:16;98350.67;;;18.22;83.07
78841;BME280;68379;47.190;27.558;2023-08-07T01:48:45;98349.36;;;18.23;83.29
78841;BME280;68379;47.190;27.558;2023-08-07T01:51:13;98349.72;;;18.25;83.23
78841;BME280;68379;47.190;27.558;2023-08-07T01:53:42;98356.34;;;18.26;83.17
78841;BME280;68379;47.190;27.558;2023-08-07T01:56:11;98357.40;;;18.29;82.95
78841;BME280;68379;47.190;27.558;2023-08-07T01:58:40;98357.83;;;18.30;82.88
78841;BME280;68379;47.190;27.558;2023-08-07T02:01:09;98359.65;;;18.30;83.21
78841;BME280;68379;47.190;27.558;2023-08-07T02:03:38;98361.35;;;18.28;83.15
78841;BME280;68379;47.190;27.558;2023-08-07T02:06:07;98361.84;;;18.27;83.34
78841;BME280;68379;47.190;27.558;2023-08-07T02:08:36;98358.10;;;18.25;83.40
78841;BME280;68379;47.190;27.558;2023-08-07T02:11:05;98357.23;;;18.23;83.45
78841;BME280;68379;47.190;27.558;2023-08-07T02:13:34;98356.61;;;18.20;84.11
78841;BME280;68379;47.190;27.558;2023-08-07T02:16:03;98359.33;;;18.16;83.97
78841;BME280;68379;47.190;27.558;2023-08-07T02:18:33;98363.41;;;18.13;83.95
78841;BME280;68379;47.190;27.558;2023-08-07T02:21:03;98361.80;;;18.09;83.75
78841;BME280;68379;47.190;27.558;2023-08-07T02:23:32;98364.69;;;18.04;84.15
78841;BME280;68379;47.190;27.558;2023-08-07T02:26:03;98362.83;;;18.01;84.36
78841;BME280;68379;47.190;27.558;2023-08-07T02:28:32;98369.13;;;17.99;84.02
78841;BME280;68379;47.190;27.558;2023-08-07T02:31:01;98373.74;;;17.98;85.11
78841;BME280;68379;47.190;27.558;2023-08-07T02:33:30;98384.73;;;17.97;85.46
78841;BME280;68379;47.190;27.558;2023-08-07T02:35:59;98392.27;;;17.94;85.76
78841;BME280;68379;47.190;27.558;2023-08-07T02:38:28;98394.27;;;17.92;85.34
78841;BME280;68379;47.190;27.558;2023-08-07T02:40:56;98394.38;;;17.91;85.71
78841;BME280;68379;47.190;27.558;2023-08-07T02:43:25;98400.00;;;17.90;85.53
78841;BME280;68379;47.190;27.558;2023-08-07T02:45:55;98399.63;;;17.90;85.77
78841;BME280;68379;47.190;27.558;2023-08-07T02:48:24;98402.94;;;17.91;85.13
78841;BME280;68379;47.190;27.558;2023-08-07T02:50:53;98409.19;;;17.93;85.95
78841;BME280;68379;47.190;27.558;2023-08-07T02:53:21;98415.20;;;17.94;86.63
78841;BME280;68379;47.190;27.558;2023-08-07T02:55:50;98412.95;;;17.95;85.92
78841;BME280;68379;47.190;27.558;2023-08-07T02:58:19;98419.43;;;17.98;86.11
78841;BME280;68379;47.190;27.558;2023-08-07T03:00:48;98427.05;;;18.01;85.95
78841;BME280;68379;47.190;27.558;2023-08-07T03:03:18;98433.34;;;18.02;85.66
78841;BME280;68379;47.190;27.558;2023-08-07T03:05:50;98431.92;;;18.06;86.08
78841;BME280;68379;47.190;27.558;2023-08-07T03:08:19;98431.80;;;18.09;85.97
78841;BME280;68379;47.190;27.558;2023-08-07T03:10:52;98436.55;;;18.12;85.75
78841;BME280;68379;47.190;27.558;2023-08-07T03:13:21;98436.33;;;18.16;85.43
78841;BME280;68379;47.190;27.558;2023-08-07T03:15:50;98441.20;;;18.21;85.64
78841;BME280;68379;47.190;27.558;2023-08-07T03:18:19;98441.40;;;18.25;85.70
78841;BME280;68379;47.190;27.558;2023-08-07T03:20:48;98442.92;;;18.28;86.26
78841;BME280;68379;47.190;27.558;2023-08-07T03:23:17;98441.84;;;18.30;85.67
78841;BME280;68379;47.190;27.558;2023-08-07T03:25:46;98445.27;;;18.32;85.20
78841;BME280;68379;47.190;27.558;2023-08-07T03:28:16;98451.96;;;18.35;84.92
78841;BME280;68379;47.190;27.558;2023-08-07T03:30:45;98456.86;;;18.38;85.31
78841;BME280;68379;47.190;27.558;2023-08-07T03:33:14;98458.87;;;18.41;85.14
78841;BME280;68379;47.190;27.558;2023-08-07T03:35:42;98458.10;;;18.43;84.91
78841;BME280;68379;47.190;27.558;2023-08-07T03:38:11;98460.33;;;18.46;85.15
78841;BME280;68379;47.190;27.558;2023-08-07T03:40:40;98465.27;;;18.49;84.50
78841;BME280;68379;47.190;27.558;2023-08-07T03:43:09;98464.40;;;18.53;84.56
78841;BME280;68379;47.190;27.558;2023-08-07T03:45:39;98467.76;;;18.55;84.68
78841;BME280;68379;47.190;27.558;2023-08-07T03:48:08;98465.22;;;18.55;85.10
78841;BME280;68379;47.190;27.558;2023-08-07T03:50:37;98466.20;;;18.58;85.18
78841;BME280;68379;47.190;27.558;2023-08-07T03:53:07;98467.24;;;18.60;84.79
78841;BME280;68379;47.190;27.558;2023-08-07T03:55:36;98471.61;;;18.63;84.66
78841;BME280;68379;47.190;27.558;2023-08-07T03:58:05;98473.44;;;18.66;84.37
78841;BME280;68379;47.190;27.558;2023-08-07T04:00:34;98476.29;;;18.68;84.62
78841;BME280;68379;47.190;27.558;2023-08-07T04:03:03;98479.82;;;18.72;84.76
78841;BME280;68379;47.190;27.558;2023-08-07T04:05:34;98478.45;;;18.73;84.72
78841;BME280;68379;47.190;27.558;2023-08-07T04:08:04;98482.12;;;18.74;84.74
78841;BME280;68379;47.190;27.558;2023-08-07T04:10:33;98488.70;;;18.76;85.12
78841;BME280;68379;47.190;27.558;2023-08-07T04:13:02;98491.70;;;18.79;84.95
78841;BME280;68379;47.190;27.558;2023-08-07T04:15:31;98493.48;;;18.82;84.85
78841;BME280;68379;47.190;27.558;2023-08-07T04:18:00;98499.34;;;18.88;84.90
78841;BME280;68379;47.190;27.558;2023-08-07T04:20:29;98501.61;;;18.93;84.78
78841;BME280;68379;47.190;27.558;2023-08-07T04:22:58;98503.83;;;18.97;84.73
78841;BME280;68379;47.190;27.558;2023-08-07T04:25:27;98505.88;;;19.02;84.74
78841;BME280;68379;47.190;27.558;2023-08-07T04:27:57;98505.40;;;19.07;84.61
78841;BME280;68379;47.190;27.558;2023-08-07T04:30:26;98511.98;;;19.09;84.68
78841;BME280;68379;47.190;27.558;2023-08-07T04:32:55;98510.28;;;19.13;84.97
78841;BME280;68379;47.190;27.558;2023-08-07T04:35:24;98513.19;;;19.14;85.04
78841;BME280;68379;47.190;27.558;2023-08-07T04:37:53;98511.10;;;19.17;84.45
78841;BME280;68379;47.190;27.558;2023-08-07T04:40:22;98514.20;;;19.20;84.69
78841;BME280;68379;47.190;27.558;2023-08-07T04:42:51;98516.19;;;19.23;84.54
78841;BME280;68379;47.190;27.558;2023-08-07T04:45:21;98519.09;;;19.29;84.50
78841;BME280;68379;47.190;27.558;2023-08-07T04:47:50;98521.45;;;19.32;84.58
78841;BME280;68379;47.190;27.558;2023-08-07T04:50:19;98522.04;;;19.34;84.47
78841;BME280;68379;47.190;27.558;2023-08-07T04:52:48;98524.17;;;19.36;84.46
78841;BME280;68379;47.190;27.558;2023-08-07T04:55:17;98528.42;;;19.40;84.08
78841;BME280;68379;47.190;27.558;2023-08-07T04:57:46;98530.54;;;19.40;83.92
78841;BME280;68379;47.190;27.558;2023-08-07T05:00:17;98532.02;;;19.39;83.81
78841;BME280;68379;47.190;27.558;2023-08-07T05:02:46;98528.55;;;19.36;83.73
78841;BME280;68379;47.190;27.558;2023-08-07T05:05:16;98530.89;;;19.35;83.49
78841;BME280;68379;47.190;27.558;2023-08-07T05:07:46;98530.95;;;19.34;83.22
78841;BME280;68379;47.190;27.558;2023-08-07T05:10:15;98534.71;;;19.34;83.01
78841;BME280;68379;47.190;27.558;2023-08-07T05:12:44;98533.52;;;19.33;82.67
78841;BME280;68379;47.190;27.558;2023-08-07T05:15:13;98535.92;;;19.31;82.53
78841;BME280;68379;47.190;27.558;2023-08-07T05:17:42;98537.84;;;19.31;82.49
78841;BME280;68379;47.190;27.558;2023-08-07T05:20:12;98538.08;;;19.29;82.13
78841;BME280;68379;47.190;27.558;2023-08-07T05:22:41;98541.77;;;19.26;82.25
78841;BME280;68379;47.190;27.558;2023-08-07T05:25:10;98541.05;;;19.24;82.15
78841;BME280;68379;47.190;27.558;2023-08-07T05:27:44;98541.44;;;19.22;82.09
78841;BME280;68379;47.190;27.558;2023-08-07T05:30:14;98544.60;;;19.21;82.13
78841;BME280;68379;47.190;27.558;2023-08-07T05:32:43;98541.42;;;19.22;82.22
78841;BME280;68379;47.190;27.558;2023-08-07T05:35:12;98542.48;;;19.22;81.80
78841;BME280;68379;47.190;27.558;2023-08-07T05:37:41;98545.50;;;19.21;81.80
78841;BME280;68379;47.190;27.558;2023-08-07T05:40:10;98550.67;;;19.21;81.85
78841;BME280;68379;47.190;27.558;2023-08-07T05:42:40;98555.25;;;19.21;81.50
78841;BME280;68379;47.190;27.558;2023-08-07T05:45:11;98554.91;;;19.21;81.37
78841;BME280;68379;47.190;27.558;2023-08-07T05:47:40;98550.82;;;19.19;80.58
78841;BME280;68379;47.190;27.558;2023-08-07T05:50:10;98546.85;;;19.16;80.49
78841;BME280;68379;47.190;27.558;2023-08-07T05:52:39;98548.83;;;19.16;80.51
78841;BME280;68379;47.190;27.558;2023-08-07T05:55:09;98553.72;;;19.15;80.17
78841;BME280;68379;47.190;27.558;2023-08-07T05:57:38;98553.61;;;19.13;80.24
78841;BME280;68379;47.190;27.558;2023-08-07T06:00:09;98555.17;;;19.09;80.07
78841;BME280;68379;47.190;27.558;2023-08-07T06:02:42;98558.70;;;19.04;79.78
78841;BME280;68379;47.190;27.558;2023-08-07T06:05:11;98561.64;;;19.01;80.18
78841;BME280;68379;47.190;27.558;2023-08-07T06:07:42;98565.53;;;19.03;80.23
78841;BME280;68379;47.190;27.558;2023-08-07T06:10:11;98565.77;;;19.05;80.24
78841;BME280;68379;47.190;27.558;2023-08-07T06:12:40;98568.19;;;19.04;80.21
78841;BME280;68379;47.190;27.558;2023-08-07T06:15:10;98571.72;;;19.06;80.31
78841;BME280;68379;47.190;27.558;2023-08-07T06:17:39;98578.70;;;19.10;80.30
78841;BME280;68379;47.190;27.558;2023-08-07T06:20:10;98579.33;;;19.15;80.10
78841;BME280;68379;47.190;27.558;2023-08-07T06:22:42;98583.81;;;19.19;80.02
78841;BME280;68379;47.190;27.558;2023-08-07T06:25:11;98595.08;;;19.22;79.91
78841;BME280;68379;47.190;27.558;2023-08-07T06:27:40;98597.19;;;19.25;79.56
78841;BME280;68379;47.190;27.558;2023-08-07T06:30:11;98599.96;;;19.26;78.95
78841;BME280;68379;47.190;27.558;2023-08-07T06:32:41;98603.27;;;19.27;79.05
78841;BME280;68379;47.190;27.558;2023-08-07T06:35:11;98595.77;;;19.32;77.99
78841;BME280;68379;47.190;27.558;2023-08-07T06:37:40;98598.38;;;19.35;77.01
78841;BME280;68379;47.190;27.558;2023-08-07T06:40:11;98602.45;;;19.43;77.22
78841;BME280;68379;47.190;27.558;2023-08-07T06:42:40;98605.44;;;19.53;76.40
78841;BME280;68379;47.190;27.558;2023-08-07T06:45:10;98608.54;;;19.61;75.06
78841;BME280;68379;47.190;27.558;2023-08-07T06:47:39;98611.59;;;19.69;75.13
78841;BME280;68379;47.190;27.558;2023-08-07T06:50:09;98617.14;;;19.80;74.74
78841;BME280;68379;47.190;27.558;2023-08-07T06:52:38;98618.98;;;19.91;75.10
78841;BME280;68379;47.190;27.558;2023-08-07T06:55:09;98621.35;;;20.02;73.21
78841;BME280;68379;47.190;27.558;2023-08-07T06:57:38;98623.50;;;20.12;73.27
78841;BME280;68379;47.190;27.558;2023-08-07T07:00:10;98623.35;;;20.18;70.77
78841;BME280;68379;47.190;27.558;2023-08-07T07:02:39;98626.77;;;20.23;71.85
78841;BME280;68379;47.190;27.558;2023-08-07T07:05:08;98629.84;;;20.30;71.44
78841;BME280;68379;47.190;27.558;2023-08-07T07:07:38;98636.00;;;20.44;71.57
78841;BME280;68379;47.190;27.558;2023-08-07T07:10:09;98639.02;;;20.52;70.07
78841;BME280;68379;47.190;27.558;2023-08-07T07:12:38;98647.21;;;20.54;68.78
78841;BME280;68379;47.190;27.558;2023-08-07T07:15:09;98650.02;;;20.53;69.09
78841;BME280;68379;47.190;27.558;2023-08-07T07:17:38;98650.33;;;20.61;68.93
78841;BME280;68379;47.190;27.558;2023-08-07T07:20:09;98653.36;;;20.71;68.89
78841;BME280;68379;47.190;27.558;2023-08-07T07:22:39;98662.08;;;20.82;67.96
78841;BME280;68379;47.190;27.558;2023-08-07T07:25:10;98667.22;;;20.89;68.30
78841;BME280;68379;47.190;27.558;2023-08-07T07:27:40;98672.77;;;21.02;67.19
78841;BME280;68379;47.190;27.558;2023-08-07T07:30:10;98674.11;;;21.13;67.01
78841;BME280;68379;47.190;27.558;2023-08-07T07:32:39;98679.34;;;21.38;65.76
78841;BME280;68379;47.190;27.558;2023-08-07T07:35:09;98680.37;;;21.66;65.09
78841;BME280;68379;47.190;27.558;2023-08-07T07:37:38;98682.93;;;21.92;63.62
78841;BME280;68379;47.190;27.558;2023-08-07T07:40:10;98686.59;;;22.13;63.34
78841;BME280;68379;47.190;27.558;2023-08-07T07:42:39;98686.38;;;22.21;62.16
78841;BME280;68379;47.190;27.558;2023-08-07T07:45:09;98696.48;;;22.29;59.90
78841;BME280;68379;47.190;27.558;2023-08-07T07:47:38;98697.36;;;22.39;59.05
78841;BME280;68379;47.190;27.558;2023-08-07T07:50:10;98699.10;;;22.50;57.33
78841;BME280;68379;47.190;27.558;2023-08-07T07:52:40;98706.98;;;22.59;56.84
78841;BME280;68379;47.190;27.558;2023-08-07T07:55:11;98706.11;;;22.77;58.02
78841;BME280;68379;47.190;27.558;2023-08-07T07:57:41;98711.46;;;22.97;55.51
78841;BME280;68379;47.190;27.558;2023-08-07T08:00:13;98720.34;;;23.18;56.28
78841;BME280;68379;47.190;27.558;2023-08-07T08:02:42;98719.26;;;23.37;55.21
78841;BME280;68379;47.190;27.558;2023-08-07T08:05:11;98715.56;;;23.49;54.76
78841;BME280;68379;47.190;27.558;2023-08-07T08:07:40;98724.71;;;23.67;54.37
78841;BME280;68379;47.190;27.558;2023-08-07T08:10:10;98729.57;;;23.85;53.73
78841;BME280;68379;47.190;27.558;2023-08-07T08:12:40;98733.60;;;23.97;53.39
78841;BME280;68379;47.190;27.558;2023-08-07T08:15:10;98728.38;;;24.06;52.76
78841;BME280;68379;47.190;27.558;2023-08-07T08:17:39;98732.63;;;24.17;52.26
78841;BME280;68379;47.190;27.558;2023-08-07T08:20:10;98729.77;;;24.23;51.24
78841;BME280;68379;47.190;27.558;2023-08-07T08:22:39;98727.30;;;24.24;50.03
78841;BME280;68379;47.190;27.558;2023-08-07T08:25:08;98736.14;;;24.24;49.97
78841;BME280;68379;47.190;27.558;2023-08-07T08:27:38;98744.68;;;24.32;48.61
78841;BME280;68379;47.190;27.558;2023-08-07T08:30:09;98744.23;;;24.47;48.90
78841;BME280;68379;47.190;27.558;2023-08-07T08:32:38;98744.73;;;24.71;48.95
78841;BME280;68379;47.190;27.558;2023-08-07T08:35:08;98744.61;;;24.80;48.91
78841;BME280;68379;47.190;27.558;2023-08-07T08:37:37;98741.07;;;24.77;48.47
78841;BME280;68379;47.190;27.558;2023-08-07T08:40:09;98739.50;;;24.78;48.21
78841;BME280;68379;47.190;27.558;2023-08-07T08:42:40;98735.39;;;24.80;46.95
78841;BME280;68379;47.190;27.558;2023-08-07T08:45:11;98743.11;;;24.79;46.66
78841;BME280;68379;47.190;27.558;2023-08-07T08:47:42;98744.41;;;24.83;47.07
78841;BME280;68379;47.190;27.558;2023-08-07T08:50:13;98742.02;;;24.94;47.37
78841;BME280;68379;47.190;27.558;2023-08-07T08:52:44;98746.02;;;25.12;46.06
78841;BME280;68379;47.190;27.558;2023-08-07T08:55:14;98740.77;;;25.08;44.97
78841;BME280;68379;47.190;27.558;2023-08-07T08:57:43;98745.53;;;24.89;44.41
78841;BME280;68379;47.190;27.558;2023-08-07T09:00:15;98740.90;;;24.80;45.28
78841;BME280;68379;47.190;27.558;2023-08-07T09:02:49;98747.69;;;24.67;45.55
78841;BME280;68379;47.190;27.558;2023-08-07T09:05:20;98755.05;;;24.50;44.80
78841;BME280;68379;47.190;27.558;2023-08-07T09:07:49;98754.35;;;24.56;45.11
78841;BME280;68379;47.190;27.558;2023-08-07T09:10:19;98758.83;;;24.80;44.24
78841;BME280;68379;47.190;27.558;2023-08-07T09:12:56;98764.44;;;24.88;44.24
78841;BME280;68379;47.190;27.558;2023-08-07T09:15:31;98773.40;;;24.74;43.58
78841;BME280;68379;47.190;27.558;2023-08-07T09:18:01;98770.05;;;24.80;44.50
78841;BME280;68379;47.190;27.558;2023-08-07T09:20:32;98773.10;;;25.00;44.45
78841;BME280;68379;47.190;27.558;2023-08-07T09:23:02;98776.07;;;25.07;43.60
78841;BME280;68379;47.190;27.558;2023-08-07T09:25:31;98781.38;;;25.08;43.65
78841;BME280;68379;47.190;27.558;2023-08-07T09:28:03;98783.05;;;25.22;42.78
78841;BME280;68379;47.190;27.558;2023-08-07T09:30:34;98779.42;;;25.41;42.32
78841;BME280;68379;47.190;27.558;2023-08-07T09:33:03;98782.75;;;25.45;42.05
78841;BME280;68379;47.190;27.558;2023-08-07T09:35:33;98776.34;;;25.57;42.96
78841;BME280;68379;47.190;27.558;2023-08-07T09:38:02;98785.84;;;25.77;42.87
78841;BME280;68379;47.190;27.558;2023-08-07T09:40:32;98792.10;;;25.85;41.28
78841;BME280;68379;47.190;27.558;2023-08-07T09:43:01;98801.72;;;25.78;41.44
78841;BME280;68379;47.190;27.558;2023-08-07T09:45:31;98799.17;;;25.63;41.83
78841;BME280;68379;47.190;27.558;2023-08-07T09:48:02;98798.65;;;25.49;41.81
78841;BME280;68379;47.190;27.558;2023-08-07T09:50:32;98802.10;;;25.32;41.76
78841;BME280;68379;47.190;27.558;2023-08-07T09:53:01;98804.34;;;25.24;41.99
78841;BME280;68379;47.190;27.558;2023-08-07T09:55:30;98806.48;;;25.18;42.27
78841;BME280;68379;47.190;27.558;2023-08-07T09:58:00;98813.55;;;25.29;42.14
78841;BME280;68379;47.190;27.558;2023-08-07T10:00:34;98817.50;;;25.46;41.43
78841;BME280;68379;47.190;27.558;2023-08-07T10:03:04;98818.98;;;25.76;41.84
78841;BME280;68379;47.190;27.558;2023-08-07T10:05:33;98818.44;;;26.08;40.66
78841;BME280;68379;47.190;27.558;2023-08-07T10:08:04;98832.80;;;26.30;39.75
78841;BME280;68379;47.190;27.558;2023-08-07T10:10:33;98837.84;;;26.38;39.33
78841;BME280;68379;47.190;27.558;2023-08-07T10:13:03;98840.27;;;26.35;39.12
78841;BME280;68379;47.190;27.558;2023-08-07T10:15:33;98833.34;;;26.30;39.69
78841;BME280;68379;47.190;27.558;2023-08-07T10:18:03;98829.80;;;26.22;39.65
78841;BME280;68379;47.190;27.558;2023-08-07T10:20:33;98833.38;;;26.01;39.67
78841;BME280;68379;47.190;27.558;2023-08-07T10:23:06;98836.48;;;25.81;40.17
78841;BME280;68379;47.190;27.558;2023-08-07T10:25:37;98843.59;;;25.84;39.83
78841;BME280;68379;47.190;27.558;2023-08-07T10:28:10;98834.64;;;26.13;40.01
78841;BME280;68379;47.190;27.558;2023-08-07T10:30:39;98836.83;;;26.48;39.43
78841;BME280;68379;47.190;27.558;2023-08-07T10:33:12;98832.71;;;26.52;38.84
78841;BME280;68379;47.190;27.558;2023-08-07T10:35:46;98836.77;;;26.51;39.52
78841;BME280;68379;47.190;27.558;2023-08-07T10:38:20;98846.54;;;26.53;39.30
78841;BME280;68379;47.190;27.558;2023-08-07T10:41:02;98848.34;;;26.50;38.63
78841;BME280;68379;47.190;27.558;2023-08-07T10:43:32;98840.74;;;26.47;38.61
78841;BME280;68379;47.190;27.558;2023-08-07T10:46:05;98847.65;;;26.48;38.66
78841;BME280;68379;47.190;27.558;2023-08-07T10:48:43;98851.43;;;26.47;38.90
78841;BME280;68379;47.190;27.558;2023-08-07T10:51:15;98857.64;;;26.64;38.50
78841;BME280;68379;47.190;27.558;2023-08-07T10:53:46;98857.79;;;26.97;38.52
78841;BME280;68379;47.190;27.558;2023-08-07T10:56:18;98862.64;;;27.14;38.07
78841;BME280;68379;47.190;27.558;2023-08-07T10:58:51;98860.30;;;27.11;38.10
78841;BME280;68379;47.190;27.558;2023-08-07T11:01:27;98865.59;;;26.98;38.36
78841;BME280;68379;47.190;27.558;2023-08-07T11:03:59;98873.89;;;26.78;38.58
78841;BME280;68379;47.190;27.558;2023-08-07T11:06:30;98878.23;;;26.83;39.06
78841;BME280;68379;47.190;27.558;2023-08-07T11:09:00;98884.22;;;26.87;38.50
78841;BME280;68379;47.190;27.558;2023-08-07T11:11:37;98882.30;;;26.81;38.42
78841;BME280;68379;47.190;27.558;2023-08-07T11:14:08;98888.13;;;26.70;37.71
78841;BME280;68379;47.190;27.558;2023-08-07T11:16:39;98890.23;;;26.83;37.57
78841;BME280;68379;47.190;27.558;2023-08-07T11:19:08;98891.33;;;27.06;37.81
78841;BME280;68379;47.190;27.558;2023-08-07T11:21:38;98893.20;;;27.09;37.73
78841;BME280;68379;47.190;27.558;2023-08-07T11:24:07;98899.34;;;26.95;37.20
78841;BME280;68379;47.190;27.558;2023-08-07T11:26:36;98903.69;;;27.04;37.75
78841;BME280;68379;47.190;27.558;2023-08-07T11:29:06;98910.63;;;27.16;37.36
78841;BME280;68379;47.190;27.558;2023-08-07T11:31:35;98910.52;;;26.99;37.19
78841;BME280;68379;47.190;27.558;2023-08-07T11:34:04;98914.16;;;26.84;37.81
78841;BME280;68379;47.190;27.558;2023-08-07T11:36:41;98917.69;;;26.88;37.52
78841;BME280;68379;47.190;27.558;2023-08-07T11:39:11;98921.54;;;27.00;37.19
78841;BME280;68379;47.190;27.558;2023-08-07T11:41:41;98914.02;;;27.01;37.47
78841;BME280;68379;47.190;27.558;2023-08-07T11:44:10;98919.83;;;26.85;38.61
78841;BME280;68379;47.190;27.558;2023-08-07T11:46:39;98919.00;;;26.50;40.52
78841;BME280;68379;47.190;27.558;2023-08-07T11:49:08;98918.63;;;26.12;42.19
78841;BME280;68379;47.190;27.558;2023-08-07T11:51:38;98921.02;;;25.81;42.43
78841;BME280;68379;47.190;27.558;2023-08-07T11:54:13;98924.84;;;25.49;43.22
78841;BME280;68379;47.190;27.558;2023-08-07T11:56:43;98928.02;;;25.16;43.91
78841;BME280;68379;47.190;27.558;2023-08-07T11:59:12;98931.17;;;24.89;44.69
78841;BME280;68379;47.190;27.558;2023-08-07T12:01:45;98931.80;;;24.62;45.34
78841;BME280;68379;47.190;27.558;2023-08-07T12:04:14;98940.94;;;24.33;45.90
78841;BME280;68379;47.190;27.558;2023-08-07T12:06:55;98942.79;;;24.15;46.76
78841;BME280;68379;47.190;27.558;2023-08-07T12:09:26;98946.98;;;23.96;47.57
78841;BME280;68379;47.190;27.558;2023-08-07T12:11:58;98948.46;;;23.91;48.87
78841;BME280;68379;47.190;27.558;2023-08-07T12:14:30;98947.46;;;23.92;48.44
78841;BME280;68379;47.190;27.558;2023-08-07T12:17:02;98949.05;;;23.95;47.80
78841;BME280;68379;47.190;27.558;2023-08-07T12:19:38;98951.96;;;23.97;48.13
78841;BME280;68379;47.190;27.558;2023-08-07T12:22:09;98954.55;;;24.01;48.10
78841;BME280;68379;47.190;27.558;2023-08-07T12:24:39;98962.92;;;24.02;48.38
78841;BME280;68379;47.190;27.558;2023-08-07T12:27:09;98963.86;;;24.03;48.18
78841;BME280;68379;47.190;27.558;2023-08-07T12:29:38;98963.86;;;24.03;48.24
78841;BME280;68379;47.190;27.558;2023-08-07T12:32:08;98965.17;;;23.96;48.65
78841;BME280;68379;47.190;27.558;2023-08-07T12:34:38;98966.09;;;23.93;48.49
78841;BME280;68379;47.190;27.558;2023-08-07T12:37:09;98965.45;;;23.89;48.52
78841;BME280;68379;47.190;27.558;2023-08-07T12:39:38;98964.67;;;23.93;48.49
78841;BME280;68379;47.190;27.558;2023-08-07T12:42:07;98960.14;;;24.01;48.47
78841;BME280;68379;47.190;27.558;2023-08-07T12:44:37;98959.47;;;24.05;48.55
78841;BME280;68379;47.190;27.558;2023-08-07T12:47:06;98958.05;;;24.25;48.32
78841;BME280;68379;47.190;27.558;2023-08-07T12:49:36;98955.23;;;24.56;47.92
78841;BME280;68379;47.190;27.558;2023-08-07T12:52:06;98952.63;;;24.87;47.41
78841;BME280;68379;47.190;27.558;2023-08-07T12:54:35;98952.11;;;25.01;47.49
78841;BME280;68379;47.190;27.558;2023-08-07T12:57:05;98955.33;;;25.22;47.40
78841;BME280;68379;47.190;27.558;2023-08-07T12:59:34;98957.71;;;25.42;47.54
78841;BME280;68379;47.190;27.558;2023-08-07T13:02:04;98964.10;;;25.48;47.13
78841;BME280;68379;47.190;27.558;2023-08-07T13:04:34;98972.34;;;25.49;46.94